Time;durP1;ratioP1;P1;durP2;ratioP2;P2;SDS_P1;SDS_P2;PMS_P1;PMS_P2;Temp;Humidity;BMP_temperature;BMP_pressure;BME280_temperature;BME280_humidity;BME280_pressure;Samples;Min_cycle;Max_cycle;Signal;HPM_P1;HPM_P2
2022/12/27 00:00:52;;;;;;;11.23;3.33;;;3.80;99.90;;;;;;5077655;28;20037;-78
2022/12/27 00:03:18;;;;;;;6.33;3.20;;;3.80;99.90;;;;;;5077330;28;20060;-80
2022/12/27 00:05:45;;;;;;;12.63;3.20;;;3.80;99.90;;;;;;5060993;28;20078;-79
2022/12/27 00:08:11;;;;;;;7.27;3.50;;;3.80;99.90;;;;;;5077583;28;20569;-80
2022/12/27 00:10:37;;;;;;;9.90;3.50;;;3.80;99.90;;;;;;5075146;28;20112;-80
2022/12/27 00:13:03;;;;;;;11.33;2.83;;;3.70;99.90;;;;;;5069351;28;20091;-80
2022/12/27 00:15:29;;;;;;;7.50;2.90;;;3.70;99.90;;;;;;5077296;28;20048;-80
2022/12/27 00:17:55;;;;;;;9.67;3.37;;;3.70;99.90;;;;;;5077423;28;20053;-80
2022/12/27 00:20:21;;;;;;;9.90;3.50;;;3.80;99.90;;;;;;5078988;28;20040;-80
2022/12/27 00:22:46;;;;;;;10.77;4.07;;;3.80;99.90;;;;;;5077862;28;20049;-80
2022/12/27 00:25:12;;;;;;;7.70;3.23;;;3.80;99.90;;;;;;5077463;28;20056;-79
2022/12/27 00:27:38;;;;;;;9.27;3.00;;;3.90;99.90;;;;;;5078199;28;20052;-80
2022/12/27 00:30:04;;;;;;;10.07;3.60;;;3.80;99.90;;;;;;5078494;28;20036;-79
2022/12/27 00:32:30;;;;;;;9.43;3.43;;;3.90;99.90;;;;;;5077422;28;20125;-81
2022/12/27 00:34:56;;;;;;;10.07;3.10;;;4.00;99.90;;;;;;5076249;28;20049;-79
2022/12/27 00:37:22;;;;;;;8.93;3.20;;;4.00;99.90;;;;;;5059913;28;20044;-80
2022/12/27 00:39:47;;;;;;;10.40;3.30;;;4.00;99.90;;;;;;5077609;28;20044;-81
2022/12/27 00:42:13;;;;;;;13.60;3.10;;;4.10;99.90;;;;;;5060823;28;20044;-81
2022/12/27 00:44:39;;;;;;;10.60;3.40;;;4.10;99.90;;;;;;5059796;28;20048;-80
2022/12/27 00:47:04;;;;;;;12.70;3.33;;;4.10;99.90;;;;;;5064585;28;20095;-79
2022/12/27 00:49:30;;;;;;;10.67;3.53;;;4.10;99.90;;;;;;5056106;28;20052;-79
2022/12/27 00:51:56;;;;;;;7.77;3.10;;;4.10;99.90;;;;;;5076887;28;20087;-80
2022/12/27 00:54:21;;;;;;;8.83;3.20;;;4.10;99.90;;;;;;5076852;28;20056;-80
2022/12/27 00:56:47;;;;;;;9.17;3.10;;;4.10;99.90;;;;;;5059956;28;20056;-80
2022/12/27 00:59:13;;;;;;;10.23;3.17;;;4.00;99.90;;;;;;5076027;28;20071;-79
2022/12/27 01:01:39;;;;;;;8.80;3.50;;;4.00;99.90;;;;;;5042457;28;20067;-80
2022/12/27 01:04:05;;;;;;;10.57;3.33;;;3.90;99.90;;;;;;5078042;28;20053;-79
2022/12/27 01:06:33;;;;;;;9.23;3.73;;;3.90;99.90;;;;;;5059645;28;20519;-80
2022/12/27 01:09:00;;;;;;;7.97;3.30;;;3.80;99.90;;;;;;5076287;28;20044;-79
2022/12/27 01:11:28;;;;;;;7.53;3.37;;;3.80;99.90;;;;;;5076018;28;20060;-80
2022/12/27 01:13:56;;;;;;;9.43;3.40;;;3.80;99.90;;;;;;5076029;28;20060;-79
2022/12/27 01:16:23;;;;;;;9.03;3.90;;;3.80;99.90;;;;;;5075410;28;20126;-79
2022/12/27 01:18:49;;;;;;;10.00;3.03;;;3.70;99.90;;;;;;5059601;28;20040;-80
2022/12/27 01:21:17;;;;;;;10.37;3.67;;;3.70;99.90;;;;;;5059194;28;20044;-81
2022/12/27 01:23:43;;;;;;;11.43;3.37;;;3.70;99.90;;;;;;5059533;28;20048;-79
2022/12/27 01:26:20;;;;;;;11.23;3.20;;;3.80;99.90;;;;;;5076207;28;20036;-79
2022/12/27 01:28:47;;;;;;;8.90;3.10;;;3.70;99.90;;;;;;5076538;28;20571;-79
2022/12/27 01:31:17;;;;;;;11.53;3.60;;;3.70;99.90;;;;;;5068496;28;20059;-79
2022/12/27 01:33:43;;;;;;;9.43;3.03;;;3.70;99.90;;;;;;5072214;28;20045;-78
2022/12/27 01:36:15;;;;;;;9.97;3.07;;;3.60;99.90;;;;;;5077336;28;20078;-79
2022/12/27 01:38:42;;;;;;;10.70;3.70;;;3.60;99.90;;;;;;5076564;28;20040;-79
2022/12/27 01:47:12;;;;;;;13.60;3.50;;;3.60;99.90;;;;;;5075836;28;20453;-80
2022/12/27 01:50:09;;;;;;;8.68;3.08;;;3.70;99.90;;;;;;5075529;28;20041;-79
2022/12/27 01:52:40;;;;;;;11.63;3.67;;;3.70;99.90;;;;;;5036967;28;20052;-80
2022/12/27 01:55:20;;;;;;;8.03;3.10;;;3.70;99.90;;;;;;5075433;28;20047;-79
2022/12/27 01:57:47;;;;;;;8.83;3.33;;;3.70;99.90;;;;;;5075493;28;20045;-79
2022/12/27 02:00:13;;;;;;;8.90;3.13;;;3.70;99.90;;;;;;5076138;28;20056;-79
2022/12/27 02:02:40;;;;;;;9.37;3.13;;;3.70;99.90;;;;;;5076916;28;20063;-78
2022/12/27 02:05:08;;;;;;;7.90;3.20;;;3.70;99.90;;;;;;5059612;28;20392;-79
2022/12/27 02:07:48;;;;;;;13.17;3.20;;;3.70;99.90;;;;;;5076302;28;20085;-79
2022/12/27 02:10:15;;;;;;;10.03;3.37;;;3.80;99.90;;;;;;5074523;28;20080;-79
2022/12/27 02:12:40;;;;;;;7.83;3.00;;;3.80;99.90;;;;;;5077310;28;20101;-80
2022/12/27 02:15:06;;;;;;;13.83;3.63;;;3.80;99.90;;;;;;5058597;28;20161;-80
2022/12/27 02:17:33;;;;;;;13.23;3.43;;;3.80;99.90;;;;;;5075232;28;20323;-79
2022/12/27 02:20:10;;;;;;;10.63;3.20;;;3.80;99.90;;;;;;5075632;28;20423;-80
2022/12/27 02:26:26;;;;;;;11.37;3.70;;;3.90;99.90;;;;;;5063631;28;20045;-80
2022/12/27 02:29:06;;;;;;;10.17;3.30;;;3.90;99.90;;;;;;5074902;28;20040;-80
2022/12/27 02:31:49;;;;;;;8.53;3.40;;;4.00;99.90;;;;;;5074850;28;20587;-79
2022/12/27 02:34:24;;;;;;;13.63;3.47;;;4.00;99.90;;;;;;5074180;28;20036;-79
2022/12/27 02:36:52;;;;;;;8.73;3.20;;;4.10;99.90;;;;;;5075176;28;20059;-79
2022/12/27 02:39:19;;;;;;;8.27;3.33;;;4.10;99.90;;;;;;5047371;28;20697;-79
2022/12/27 02:53:06;;;;;;;8.10;2.83;;;4.50;99.90;;;;;;5076186;28;20056;-79
2022/12/27 02:58:54;;;;;;;10.60;2.67;;;4.50;99.90;;;;;;5076042;28;20052;-79
2022/12/27 03:05:13;;;;;;;8.27;3.03;;;4.40;99.90;;;;;;5003492;28;20121;-76
2022/12/27 03:07:58;;;;;;;11.10;3.10;;;4.50;99.90;;;;;;5071840;28;20726;-80
2022/12/27 03:16:40;;;;;;;12.17;3.47;;;4.60;99.90;;;;;;5074528;28;20052;-78
2022/12/27 03:27:35;;;;;;;9.23;3.33;;;4.60;99.90;;;;;;5063477;28;20052;-80
2022/12/27 03:33:13;;;;;;;10.03;3.03;;;4.60;99.90;;;;;;5074169;28;20052;-79
2022/12/27 03:38:51;;;;;;;11.40;3.30;;;4.70;99.90;;;;;;5075917;28;20412;-80
2022/12/27 03:44:25;;;;;;;6.68;2.90;;;4.70;99.90;;;;;;5075202;28;20439;-79
2022/12/27 03:46:58;;;;;;;10.23;2.83;;;4.70;99.90;;;;;;5060349;28;20327;-80
2022/12/27 03:49:24;;;;;;;10.17;3.00;;;4.60;99.90;;;;;;5073897;28;20048;-79
2022/12/27 03:52:06;;;;;;;9.20;3.17;;;4.60;99.90;;;;;;5057489;28;20050;-79
2022/12/27 03:54:41;;;;;;;16.02;3.45;;;4.60;99.90;;;;;;5060946;28;20060;-79
2022/12/27 03:57:16;;;;;;;13.13;3.23;;;4.50;99.90;;;;;;5072885;28;20054;-78
2022/12/27 03:59:42;;;;;;;18.10;3.30;;;4.50;99.90;;;;;;5075773;28;20095;-79
2022/12/27 04:02:08;;;;;;;13.23;3.53;;;4.50;99.90;;;;;;5058810;28;20598;-79
2022/12/27 04:04:34;;;;;;;13.80;3.20;;;4.40;99.90;;;;;;5073646;28;20043;-78
2022/12/27 04:07:00;;;;;;;13.20;3.33;;;4.50;99.90;;;;;;5074092;28;20048;-78
2022/12/27 04:36:49;;;;;;;12.27;3.40;;;4.50;99.90;;;;;;5077020;28;20053;-79
2022/12/27 04:39:15;;;;;;;8.33;2.70;;;4.40;99.90;;;;;;5078511;28;20048;-79
2022/12/27 04:55:29;;;;;;;11.27;3.00;;;4.40;99.90;;;;;;5067445;28;20523;-78
2022/12/27 04:57:56;;;;;;;8.77;3.40;;;4.40;99.90;;;;;;5076819;28;20074;-78
2022/12/27 05:03:17;;;;;;;12.93;3.67;;;4.50;99.90;;;;;;5062929;28;20049;-79
2022/12/27 05:05:43;;;;;;;8.03;3.70;;;4.50;99.90;;;;;;5076856;28;20119;-78
2022/12/27 05:13:58;;;;;;;11.97;3.43;;;4.60;99.90;;;;;;5076748;28;20040;-78
2022/12/27 05:16:25;;;;;;;11.13;3.30;;;4.50;99.90;;;;;;5077346;28;20060;-79
2022/12/27 05:18:52;;;;;;;14.07;3.90;;;4.50;99.90;;;;;;5059621;28;20048;-78
2022/12/27 05:21:17;;;;;;;18.23;3.53;;;4.50;99.90;;;;;;5077115;28;20045;-78
2022/12/27 05:26:29;;;;;;;10.17;3.20;;;4.40;99.90;;;;;;5075748;28;20409;-78
2022/12/27 05:28:56;;;;;;;10.83;3.23;;;4.30;99.90;;;;;;5059989;28;20040;-78
2022/12/27 05:31:24;;;;;;;14.80;3.97;;;4.30;99.90;;;;;;5076041;28;20542;-79
2022/12/27 05:33:50;;;;;;;9.30;3.50;;;4.30;99.90;;;;;;5059383;28;20043;-78
2022/12/27 05:36:16;;;;;;;8.60;2.73;;;4.40;99.90;;;;;;5076195;28;20059;-79
2022/12/27 05:38:42;;;;;;;13.87;3.47;;;4.40;99.90;;;;;;5075971;28;20580;-79
2022/12/27 05:41:08;;;;;;;14.93;3.33;;;4.40;99.90;;;;;;5059584;28;20053;-79
2022/12/27 05:43:34;;;;;;;8.17;3.07;;;4.30;99.90;;;;;;5076202;28;20072;-79
2022/12/27 05:46:15;;;;;;;12.90;3.30;;;4.30;99.90;;;;;;5076146;28;20838;-80
2022/12/27 05:48:41;;;;;;;12.60;3.00;;;4.30;99.90;;;;;;5074787;28;20594;-79
2022/12/27 05:51:18;;;;;;;16.23;3.67;;;4.30;99.90;;;;;;5076003;28;20102;-78
2022/12/27 05:53:44;;;;;;;9.90;2.90;;;4.30;99.90;;;;;;5077093;28;20041;-78
2022/12/27 05:56:18;;;;;;;13.63;3.47;;;4.30;99.90;;;;;;5075691;28;20052;-78
2022/12/27 05:58:44;;;;;;;11.50;3.37;;;4.30;99.90;;;;;;5075047;28;20041;-78
2022/12/27 06:01:16;;;;;;;15.43;3.27;;;4.30;99.90;;;;;;5067279;28;20094;-79
2022/12/27 06:03:42;;;;;;;11.32;3.30;;;4.40;99.90;;;;;;5070213;28;20116;-79
2022/12/27 06:06:08;;;;;;;11.63;3.63;;;4.40;99.90;;;;;;5075100;28;20100;-79
2022/12/27 06:08:35;;;;;;;8.57;3.20;;;4.40;99.90;;;;;;5059256;28;20052;-79
2022/12/27 06:11:04;;;;;;;8.17;3.07;;;4.40;99.90;;;;;;5075235;28;20067;-79
2022/12/27 06:13:30;;;;;;;10.33;3.33;;;4.40;99.90;;;;;;5065359;28;20072;-79
2022/12/27 06:16:01;;;;;;;11.67;3.03;;;4.30;99.90;;;;;;5072506;28;20051;-79
2022/12/27 06:18:29;;;;;;;8.63;3.00;;;4.30;99.90;;;;;;5074775;28;20123;-80
2022/12/27 06:21:00;;;;;;;14.00;3.37;;;4.20;99.90;;;;;;5058877;28;20075;-78
2022/12/27 06:23:26;;;;;;;8.88;3.50;;;4.20;99.90;;;;;;5058332;28;20094;-81
2022/12/27 06:25:51;;;;;;;10.47;3.37;;;4.10;99.90;;;;;;5074450;28;20566;-79
2022/12/27 06:28:17;;;;;;;8.67;3.10;;;4.10;99.90;;;;;;5074973;28;20052;-79
2022/12/27 06:30:43;;;;;;;9.77;3.07;;;4.10;99.90;;;;;;5074960;28;20079;-79
2022/12/27 06:33:08;;;;;;;12.80;3.43;;;4.10;99.90;;;;;;5074643;28;20037;-78
2022/12/27 06:35:34;;;;;;;9.30;3.10;;;4.10;99.90;;;;;;5074981;28;20052;-79
2022/12/27 06:38:00;;;;;;;8.73;3.13;;;4.20;99.90;;;;;;5074076;28;20068;-78
2022/12/27 06:40:25;;;;;;;12.33;4.10;;;4.20;99.90;;;;;;5075904;28;20049;-79
2022/12/27 06:42:51;;;;;;;8.97;2.63;;;4.20;99.90;;;;;;5074880;28;20044;-78
2022/12/27 06:45:17;;;;;;;11.77;3.23;;;4.20;99.90;;;;;;5074365;28;20507;-78
2022/12/27 06:47:42;;;;;;;9.37;2.90;;;4.20;99.90;;;;;;5076221;28;20044;-78
2022/12/27 06:50:08;;;;;;;10.53;3.53;;;4.20;99.90;;;;;;5057537;28;20053;-78
2022/12/27 06:52:34;;;;;;;8.33;3.33;;;4.20;99.90;;;;;;5066019;28;20045;-78
2022/12/27 06:55:00;;;;;;;12.77;3.43;;;4.10;99.90;;;;;;5055479;28;20052;-79
2022/12/27 06:57:25;;;;;;;10.30;3.07;;;4.10;99.90;;;;;;5074244;28;20059;-78
2022/12/27 06:59:51;;;;;;;10.00;3.90;;;4.00;99.90;;;;;;5076267;28;20513;-78
2022/12/27 07:02:18;;;;;;;8.80;2.87;;;4.00;99.90;;;;;;5071131;28;20071;-78
2022/12/27 07:04:44;;;;;;;15.40;3.50;;;4.00;99.90;;;;;;5074399;28;20074;-79
2022/12/27 07:07:09;;;;;;;8.83;3.33;;;4.00;99.90;;;;;;5074321;28;20074;-79
2022/12/27 07:09:35;;;;;;;9.20;3.40;;;3.90;99.90;;;;;;5057691;28;20048;-79
2022/12/27 07:12:01;;;;;;;12.03;3.73;;;3.90;99.90;;;;;;5074244;28;20135;-79
2022/12/27 07:14:26;;;;;;;11.10;3.50;;;3.80;99.90;;;;;;5056639;28;20077;-79
2022/12/27 07:16:52;;;;;;;11.17;3.63;;;3.80;99.90;;;;;;5074534;28;20044;-78
2022/12/27 07:19:18;;;;;;;8.73;3.57;;;3.80;99.90;;;;;;5073915;28;20051;-78
2022/12/27 07:21:43;;;;;;;13.20;4.20;;;3.80;99.90;;;;;;5072159;28;20064;-78
2022/12/27 07:24:09;;;;;;;11.13;3.43;;;3.80;99.90;;;;;;5066845;28;20053;-79
2022/12/27 07:26:35;;;;;;;9.90;3.70;;;3.80;99.90;;;;;;5068692;28;20041;-83
2022/12/27 07:29:01;;;;;;;11.87;4.00;;;3.80;99.90;;;;;;5073414;28;20080;-82
2022/12/27 07:31:29;;;;;;;11.00;3.83;;;3.80;99.90;;;;;;5075227;28;20044;-79
2022/12/27 07:33:56;;;;;;;11.93;3.37;;;3.80;99.90;;;;;;5073139;28;20040;-88
2022/12/27 07:36:25;;;;;;;9.70;3.47;;;3.80;99.90;;;;;;5073782;28;20049;-87
2022/12/27 07:38:51;;;;;;;15.27;4.53;;;3.80;99.90;;;;;;5068810;28;20037;-87
2022/12/27 07:41:17;;;;;;;12.70;3.93;;;3.80;99.90;;;;;;5068144;28;20053;-86
2022/12/27 07:43:43;;;;;;;12.43;3.60;;;3.80;99.90;;;;;;5065334;28;20052;-88
2022/12/27 07:46:16;;;;;;;10.70;4.80;;;3.80;99.90;;;;;;5064937;28;20045;-86
2022/12/27 07:48:42;;;;;;;10.20;4.40;;;3.80;99.90;;;;;;5078309;28;20041;-87
2022/12/27 07:51:08;;;;;;;11.47;4.00;;;3.80;99.90;;;;;;5074245;28;20205;-88
2022/12/27 07:53:35;;;;;;;11.00;3.97;;;3.90;99.90;;;;;;5079153;28;20047;-83
2022/12/27 07:56:10;;;;;;;14.43;4.30;;;3.90;99.90;;;;;;5079934;28;20048;-84
2022/12/27 07:58:41;;;;;;;16.57;4.30;;;3.90;99.90;;;;;;5058900;28;20048;-84
2022/12/27 08:01:09;;;;;;;8.98;3.85;;;3.80;99.90;;;;;;5069691;28;20369;-81
2022/12/27 08:03:35;;;;;;;12.50;3.90;;;3.90;99.90;;;;;;5048975;28;20075;-85
2022/12/27 08:06:01;;;;;;;13.87;3.80;;;3.80;99.90;;;;;;5072004;28;20037;-85
2022/12/27 08:08:42;;;;;;;10.73;4.17;;;3.80;99.90;;;;;;5074704;28;20041;-84
2022/12/27 08:11:08;;;;;;;12.07;4.27;;;3.80;99.90;;;;;;5074888;28;20048;-84
2022/12/27 08:13:35;;;;;;;12.73;4.23;;;3.80;99.90;;;;;;5076987;28;20024;-80
2022/12/27 08:16:02;;;;;;;13.20;3.80;;;3.70;99.90;;;;;;5079481;28;20059;-82
2022/12/27 08:18:27;;;;;;;13.50;4.00;;;3.70;99.90;;;;;;5072284;28;20045;-87
2022/12/27 08:20:53;;;;;;;9.57;4.40;;;3.70;99.90;;;;;;5075767;28;20042;-75
2022/12/27 08:23:19;;;;;;;14.70;4.53;;;3.70;99.90;;;;;;5079070;28;20036;-74
2022/12/27 08:25:45;;;;;;;17.17;4.20;;;3.80;99.90;;;;;;5076631;28;20051;-77
2022/12/27 08:28:14;;;;;;;17.10;5.07;;;3.80;99.90;;;;;;5081736;28;20041;-77
2022/12/27 08:30:41;;;;;;;12.27;4.27;;;3.90;99.90;;;;;;5082390;28;20045;-77
2022/12/27 08:33:08;;;;;;;12.87;4.00;;;3.90;99.90;;;;;;5074380;28;20118;-76
2022/12/27 08:35:43;;;;;;;12.53;3.90;;;3.90;99.90;;;;;;5076776;28;20174;-77
2022/12/27 08:38:09;;;;;;;9.63;3.57;;;4.00;99.90;;;;;;5070037;28;20059;-77
2022/12/27 08:40:40;;;;;;;12.83;4.03;;;4.00;99.90;;;;;;5068606;28;20055;-78
2022/12/27 08:43:06;;;;;;;12.10;4.07;;;4.00;99.90;;;;;;5071222;28;20391;-77
2022/12/27 08:45:32;;;;;;;9.17;3.43;;;4.00;99.90;;;;;;5076688;28;20522;-77
2022/12/27 08:47:59;;;;;;;9.23;3.70;;;4.00;99.90;;;;;;5068224;28;20059;-77
2022/12/27 08:50:25;;;;;;;14.00;3.60;;;4.10;99.90;;;;;;5063755;28;20044;-77
2022/12/27 08:52:51;;;;;;;8.50;3.33;;;4.10;99.90;;;;;;5060610;28;20040;-78
2022/12/27 08:55:17;;;;;;;13.80;4.10;;;4.20;99.90;;;;;;5060995;28;20052;-79
2022/12/27 08:57:42;;;;;;;13.03;3.67;;;4.20;99.90;;;;;;5077376;28;20474;-78
2022/12/27 09:00:09;;;;;;;13.23;3.57;;;4.20;99.90;;;;;;5075413;28;20130;-77
2022/12/27 09:02:36;;;;;;;11.80;3.90;;;4.20;99.90;;;;;;5063417;28;20646;-79
2022/12/27 09:05:01;;;;;;;18.30;4.77;;;4.20;99.90;;;;;;5076845;28;20082;-79
2022/12/27 09:07:27;;;;;;;9.77;3.67;;;4.20;99.90;;;;;;5075710;28;20058;-77
2022/12/27 09:09:53;;;;;;;12.43;3.90;;;4.20;99.90;;;;;;5067779;28;20128;-77
2022/12/27 09:12:18;;;;;;;12.03;3.93;;;4.30;99.90;;;;;;5068701;28;20055;-80
2022/12/27 09:14:44;;;;;;;11.30;4.43;;;4.30;99.90;;;;;;5068344;28;20099;-78
2022/12/27 09:17:10;;;;;;;11.10;4.07;;;4.30;99.90;;;;;;5076058;28;20076;-80
2022/12/27 09:19:35;;;;;;;10.43;3.70;;;4.20;99.90;;;;;;5073445;28;20048;-78
2022/12/27 09:22:01;;;;;;;11.00;3.67;;;4.20;99.90;;;;;;5043637;28;20087;-79
2022/12/27 09:24:27;;;;;;;11.87;4.07;;;4.30;99.90;;;;;;5076195;28;20570;-78
2022/12/27 09:26:52;;;;;;;10.23;4.20;;;4.30;99.90;;;;;;5069841;28;20064;-79
2022/12/27 09:29:18;;;;;;;9.77;3.87;;;4.40;99.90;;;;;;5068981;28;20155;-78
2022/12/27 09:31:44;;;;;;;10.83;4.20;;;4.40;99.90;;;;;;5072494;28;20033;-80
2022/12/27 09:34:11;;;;;;;14.03;4.00;;;4.40;99.90;;;;;;5070890;28;20063;-77
2022/12/27 09:36:38;;;;;;;10.27;4.17;;;4.50;99.90;;;;;;5069678;28;20104;-78
2022/12/27 09:39:04;;;;;;;15.00;4.57;;;4.60;99.90;;;;;;5066478;28;20044;-79
2022/12/27 09:41:32;;;;;;;11.93;4.00;;;4.60;99.90;;;;;;5066199;28;20055;-74
2022/12/27 09:44:12;;;;;;;11.77;5.17;;;4.70;99.90;;;;;;5071640;28;20755;-76
2022/12/27 09:46:39;;;;;;;11.37;4.30;;;4.70;99.90;;;;;;5050349;28;20135;-77
2022/12/27 09:49:10;;;;;;;10.57;3.87;;;4.80;99.90;;;;;;5068513;28;20484;-79
2022/12/27 09:51:51;;;;;;;14.70;4.10;;;4.90;99.90;;;;;;5058317;28;20068;-79
2022/12/27 09:54:24;;;;;;;8.27;4.00;;;4.90;99.90;;;;;;5047888;28;20299;-80
2022/12/27 09:56:51;;;;;;;9.90;4.07;;;5.00;99.90;;;;;;5071438;28;20052;-79
2022/12/27 09:59:37;;;;;;;12.87;4.33;;;5.00;99.90;;;;;;5067522;28;20093;-79
2022/12/27 10:02:17;;;;;;;7.93;4.17;;;5.10;99.90;;;;;;5064690;28;20483;-79
2022/12/27 10:04:43;;;;;;;14.77;4.47;;;5.10;99.90;;;;;;5066320;28;20087;-79
2022/12/27 10:07:25;;;;;;;14.77;4.80;;;5.20;99.90;;;;;;5045530;28;20443;-79
2022/12/27 10:10:19;;;;;;;10.57;3.87;;;5.30;99.90;;;;;;5044004;28;20124;-81
2022/12/27 10:13:23;;;;;;;10.77;4.30;;;5.40;99.90;;;;;;5067581;28;20037;-78
2022/12/27 10:15:59;;;;;;;10.50;3.80;;;5.40;99.90;;;;;;5053467;28;20371;-79
2022/12/27 10:19:00;;;;;;;9.83;4.10;;;5.50;99.90;;;;;;5072884;28;20102;-79
2022/12/27 10:21:28;;;;;;;12.60;4.00;;;5.50;99.90;;;;;;5073371;28;20056;-81
2022/12/27 10:24:04;;;;;;;10.37;3.77;;;5.60;99.90;;;;;;5064724;28;20052;-83
2022/12/27 10:26:29;;;;;;;11.03;3.90;;;5.60;99.90;;;;;;5069490;28;20041;-81
2022/12/27 10:29:03;;;;;;;10.20;3.70;;;5.70;99.90;;;;;;5059434;28;20048;-79
2022/12/27 10:31:30;;;;;;;11.03;3.67;;;5.70;99.90;;;;;;5069804;28;20112;-80
2022/12/27 10:33:56;;;;;;;15.33;3.70;;;5.80;99.90;;;;;;5051418;28;20040;-80
2022/12/27 10:36:26;;;;;;;18.10;3.93;;;5.90;99.90;;;;;;5073567;28;20078;-80
2022/12/27 10:38:53;;;;;;;11.40;4.50;;;5.90;99.90;;;;;;5075269;28;20075;-79
2022/12/27 10:41:34;;;;;;;18.37;4.47;;;5.90;99.90;;;;;;5075995;28;20501;-81
2022/12/27 10:43:59;;;;;;;10.83;3.63;;;6.00;99.90;;;;;;5067152;28;20063;-80
2022/12/27 10:46:28;;;;;;;9.70;3.50;;;6.10;99.90;;;;;;5074976;28;20048;-80
2022/12/27 10:49:03;;;;;;;12.60;3.80;;;6.10;99.90;;;;;;5063503;28;20045;-80
2022/12/27 10:51:38;;;;;;;13.60;3.73;;;6.20;99.90;;;;;;5073166;28;20056;-80
2022/12/27 10:54:18;;;;;;;12.93;3.53;;;6.30;99.90;;;;;;5060482;28;20044;-80
2022/12/27 10:56:44;;;;;;;13.07;3.57;;;6.30;99.90;;;;;;5058026;28;20048;-80
2022/12/27 10:59:37;;;;;;;15.47;3.80;;;6.40;99.90;;;;;;5073835;28;20040;-81
2022/12/27 11:02:15;;;;;;;10.80;3.50;;;6.30;99.90;;;;;;5066877;28;20063;-81
2022/12/27 11:04:57;;;;;;;11.87;3.93;;;6.30;99.90;;;;;;5064212;28;20044;-80
2022/12/27 11:07:29;;;;;;;11.10;3.53;;;6.20;99.90;;;;;;5074825;28;20130;-80
2022/12/27 11:10:13;;;;;;;14.10;3.60;;;6.20;99.90;;;;;;5066793;28;20511;-81
2022/12/27 11:12:38;;;;;;;10.13;3.53;;;6.20;99.90;;;;;;5062377;28;20041;-81
2022/12/27 11:15:10;;;;;;;8.27;3.20;;;6.20;99.90;;;;;;5068055;28;20041;-79
2022/12/27 11:17:41;;;;;;;11.25;3.92;;;6.10;99.90;;;;;;5068993;28;20047;-80
2022/12/27 11:20:11;;;;;;;11.20;3.63;;;6.10;99.90;;;;;;5045016;28;20443;-81
2022/12/27 11:22:46;;;;;;;12.93;3.20;;;6.00;99.90;;;;;;5071997;28;20045;-81
2022/12/27 11:25:14;;;;;;;10.20;3.43;;;6.10;99.90;;;;;;5068100;28;20059;-81
2022/12/27 11:27:45;;;;;;;12.57;3.70;;;6.10;99.90;;;;;;5070381;28;20052;-80
2022/12/27 11:30:33;;;;;;;12.05;4.20;;;6.20;99.90;;;;;;5066900;28;20049;-80
2022/12/27 11:33:19;;;;;;;11.13;3.40;;;6.20;99.90;;;;;;5061870;28;20456;-80
2022/12/27 11:35:51;;;;;;;8.23;3.30;;;6.30;99.90;;;;;;5060496;28;20052;-80
2022/12/27 11:38:27;;;;;;;7.43;3.33;;;6.30;99.90;;;;;;5055365;28;20093;-79
2022/12/27 11:41:09;;;;;;;9.87;2.87;;;6.40;99.90;;;;;;5059181;28;20103;-80
2022/12/27 11:43:50;;;;;;;12.47;3.87;;;6.50;99.90;;;;;;5058174;28;20061;-80
2022/12/27 11:46:40;;;;;;;10.97;3.20;;;6.60;99.90;;;;;;5062635;28;20087;-80
2022/12/27 11:49:18;;;;;;;11.20;3.17;;;6.60;99.90;;;;;;5058372;28;20040;-81
2022/12/27 11:52:23;;;;;;;11.50;3.50;;;6.70;99.90;;;;;;5056393;28;20101;-80
2022/12/27 11:55:07;;;;;;;9.83;3.50;;;6.70;99.90;;;;;;5055399;28;20072;-80
2022/12/27 11:57:49;;;;;;;9.30;2.83;;;6.70;99.90;;;;;;5065597;28;20144;-81
2022/12/27 12:00:21;;;;;;;;;;;6.60;99.90;;;;;;5055150;28;20096;-81
2022/12/27 12:02:55;;;;;;;7.77;2.73;;;6.50;99.90;;;;;;5056033;28;19921;-81
2022/12/27 12:05:33;;;;;;;11.20;2.87;;;6.60;99.90;;;;;;5053668;28;20067;-81
2022/12/27 12:08:22;;;;;;;9.13;3.10;;;6.60;99.90;;;;;;5057262;28;20041;-80
2022/12/27 12:10:55;;;;;;;8.97;3.10;;;6.60;99.90;;;;;;5063881;28;20052;-80
2022/12/27 12:13:33;;;;;;;12.33;2.80;;;6.60;99.90;;;;;;5074186;28;20095;-80
2022/12/27 12:16:22;;;;;;;9.43;3.07;;;6.70;99.90;;;;;;5074138;28;20043;-81
2022/12/27 12:19:09;;;;;;;10.57;3.13;;;6.70;99.90;;;;;;5057344;28;20052;-81
2022/12/27 12:21:53;;;;;;;14.17;3.30;;;6.70;99.90;;;;;;5072437;28;20502;-81
2022/12/27 12:24:56;;;;;;;8.33;2.77;;;6.70;99.90;;;;;;5051226;28;20108;-81
2022/12/27 12:27:30;;;;;;;11.35;2.67;;;6.70;99.90;;;;;;5066164;28;20049;-81
2022/12/27 12:30:25;;;;;;;9.80;3.37;;;6.70;99.90;;;;;;5046404;28;20060;-80
2022/12/27 12:32:57;;;;;;;7.20;3.10;;;6.60;99.90;;;;;;5066272;28;20041;-81
2022/12/27 12:36:00;;;;;;;10.55;2.65;;;6.50;99.90;;;;;;5059096;28;20068;-81
2022/12/27 12:38:48;;;;;;;8.57;3.07;;;6.50;99.90;;;;;;5058566;28;20073;-82
2022/12/27 12:41:22;;;;;;;10.80;2.90;;;6.40;99.90;;;;;;5059183;28;20683;-81
2022/12/27 12:44:15;;;;;;;9.33;3.37;;;6.40;99.90;;;;;;5068397;28;20120;-82
2022/12/27 12:47:20;;;;;;;13.10;2.97;;;6.50;99.90;;;;;;5076570;28;20063;-83
2022/12/27 12:49:55;;;;;;;10.60;3.80;;;6.50;99.90;;;;;;5065628;28;20044;-83
2022/12/27 12:52:45;;;;;;;10.67;2.87;;;6.50;99.90;;;;;;5078388;28;20102;-83
2022/12/27 12:55:30;;;;;;;9.30;3.10;;;6.50;99.90;;;;;;5063125;28;20050;-82
2022/12/27 13:00:43;;;;;;;13.43;4.00;;;6.50;99.90;;;;;;4801922;26;20054;-82
2022/12/27 13:03:40;;;;;;;12.47;3.73;;;6.60;99.90;;;;;;5012098;28;20057;-82
2022/12/27 13:06:21;;;;;;;12.67;3.63;;;6.60;99.90;;;;;;4995170;28;20046;-82
2022/12/27 13:08:59;;;;;;;9.60;3.50;;;6.60;99.90;;;;;;4987057;28;20034;-83
2022/12/27 13:12:03;;;;;;;10.90;3.30;;;6.60;99.90;;;;;;5015655;28;20393;-82
2022/12/27 13:14:54;;;;;;;10.33;4.27;;;6.60;99.90;;;;;;4942015;28;20049;-82
2022/12/27 13:17:51;;;;;;;13.87;4.80;;;6.60;99.90;;;;;;4958911;28;20059;-83
2022/12/27 13:20:16;;;;;;;9.87;4.40;;;6.60;99.90;;;;;;4967669;28;20102;-84
2022/12/27 13:22:57;;;;;;;10.97;5.60;;;6.70;99.90;;;;;;4998953;28;20906;-84
2022/12/27 13:25:45;;;;;;;10.03;5.00;;;6.70;99.90;;;;;;4987140;28;20042;-82
2022/12/27 13:28:36;;;;;;;9.80;5.60;;;6.70;99.90;;;;;;5011306;28;20034;-85
2022/12/27 13:31:07;;;;;;;12.57;5.83;;;6.70;99.90;;;;;;5015217;28;20041;-80
2022/12/27 13:33:55;;;;;;;12.38;5.60;;;6.70;99.90;;;;;;5014188;28;20073;-83
2022/12/27 13:36:58;;;;;;;14.50;6.00;;;6.60;99.90;;;;;;5010839;28;20073;-81
2022/12/27 13:39:33;;;;;;;13.97;6.20;;;6.60;99.90;;;;;;4984612;28;20050;-80
2022/12/27 13:42:35;;;;;;;14.80;7.90;;;6.50;99.90;;;;;;5014665;28;20390;-81
2022/12/27 13:45:18;;;;;;;13.43;6.60;;;6.50;99.90;;;;;;4996817;28;20045;-81
2022/12/27 13:48:05;;;;;;;14.53;7.23;;;6.60;99.90;;;;;;4998152;28;20042;-81
2022/12/27 13:50:58;;;;;;;15.37;7.20;;;6.60;99.90;;;;;;4983352;28;20037;-81
2022/12/27 13:53:36;;;;;;;18.77;8.25;;;6.60;99.90;;;;;;5006060;28;20042;-81
2022/12/27 13:56:24;;;;;;;15.13;7.87;;;6.60;99.90;;;;;;5011147;28;20042;-81
2022/12/27 13:59:12;;;;;;;16.27;9.03;;;6.60;99.90;;;;;;4998039;28;20061;-81
2022/12/27 14:02:17;;;;;;;16.73;9.23;;;6.50;99.90;;;;;;5000044;28;20049;-81
2022/12/27 14:05:18;;;;;;;17.40;9.23;;;6.40;99.90;;;;;;4975523;28;20049;-84
2022/12/27 14:08:01;;;;;;;24.90;10.97;;;6.40;99.90;;;;;;4986613;28;20042;-83
2022/12/27 14:10:39;;;;;;;15.87;9.77;;;6.40;99.90;;;;;;5005180;28;20030;-82
2022/12/27 14:13:09;;;;;;;19.13;11.20;;;6.40;99.90;;;;;;5017651;28;20042;-82
2022/12/27 14:15:44;;;;;;;20.07;12.23;;;6.40;99.90;;;;;;4977907;28;20117;-83
2022/12/27 14:18:35;;;;;;;17.83;12.30;;;6.30;99.90;;;;;;5015493;28;20045;-83
2022/12/27 14:21:16;;;;;;;23.07;14.07;;;6.30;99.90;;;;;;5009986;28;20598;-82
2022/12/27 14:24:01;;;;;;;21.60;13.40;;;6.30;99.90;;;;;;5007856;28;20026;-83
2022/12/27 14:26:48;;;;;;;20.80;13.07;;;6.30;99.90;;;;;;5004797;28;20097;-82
2022/12/27 14:29:52;;;;;;;22.93;13.13;;;6.20;99.90;;;;;;5002960;28;20112;-83
2022/12/27 14:32:52;;;;;;;21.30;12.77;;;6.20;99.90;;;;;;5001020;28;20038;-81
2022/12/27 14:35:29;;;;;;;18.70;13.60;;;6.20;99.90;;;;;;5008010;28;20054;-82
2022/12/27 14:38:45;;;;;;;22.60;13.87;;;6.20;99.90;;;;;;5014444;28;20038;-82
2022/12/27 14:41:42;;;;;;;20.67;13.50;;;6.20;99.90;;;;;;5005819;28;20034;-82
2022/12/27 14:44:14;;;;;;;20.07;13.80;;;6.20;99.90;;;;;;5011243;28;20031;-83
2022/12/27 14:46:58;;;;;;;;;;;6.10;99.90;;;;;;4993703;28;20096;-82
2022/12/27 14:49:42;;;;;;;21.63;14.60;;;6.10;99.90;;;;;;5009880;28;19917;-82
2022/12/27 14:52:57;;;;;;;27.00;15.60;;;6.20;99.90;;;;;;5013673;28;20048;-82
2022/12/27 14:55:47;;;;;;;22.20;15.50;;;6.20;99.90;;;;;;4928253;28;20057;-83
2022/12/27 14:58:24;;;;;;;21.83;15.47;;;6.10;99.90;;;;;;4997121;28;20041;-82
2022/12/27 15:01:19;;;;;;;25.80;15.17;;;6.20;99.90;;;;;;5011905;28;20045;-82
2022/12/27 15:03:57;;;;;;;23.87;15.53;;;6.10;99.90;;;;;;5005369;28;20485;-82
2022/12/27 15:06:45;;;;;;;27.53;16.23;;;6.10;99.90;;;;;;5015194;28;20045;-82
2022/12/27 15:09:36;;;;;;;23.43;15.53;;;6.10;99.90;;;;;;4999580;28;20042;-81